createdAt,value
2018-12-27T00:00:06.456Z,99933.08
2018-12-27T00:02:40.418Z,99937.03
2018-12-27T00:05:15.006Z,99940.17
2018-12-27T00:07:46.828Z,99834.33
2018-12-27T00:10:20.693Z,99948.23
2018-12-27T00:12:56.192Z,99946.60
2018-12-27T00:15:30.470Z,99949.72
2018-12-27T00:18:02.482Z,99936.06
2018-12-27T00:20:42.444Z,99945.59
2018-12-27T00:23:21.854Z,99936.38
2018-12-27T00:25:57.624Z,99944.42
2018-12-27T00:28:31.069Z,99945.77
2018-12-27T00:31:04.740Z,99957.45
2018-12-27T00:33:38.855Z,99952.02
2018-12-27T00:36:12.159Z,99944.11
2018-12-27T00:38:47.281Z,99946.58
2018-12-27T00:41:19.164Z,99944.59
2018-12-27T00:43:54.537Z,99932.05
2018-12-27T00:46:27.675Z,99938.80
2018-12-27T00:49:01.123Z,99934.69
2018-12-27T00:51:35.581Z,99944.91
2018-12-27T00:54:10.198Z,99938.16
2018-12-27T00:56:45.487Z,99946.58
2018-12-27T00:59:19.194Z,99941.28
2018-12-27T01:01:51.923Z,99931.74
2018-12-27T01:04:25.927Z,99929.77
2018-12-27T01:06:59.027Z,99938.66
2018-12-27T01:09:33.038Z,99939.47
2018-12-27T01:12:10.186Z,99930.75
2018-12-27T01:14:44.199Z,99921.04
2018-12-27T01:17:17.063Z,99930.44
2018-12-27T01:19:49.019Z,99930.44
2018-12-27T01:22:24.596Z,99931.73
2018-12-27T01:25:00.643Z,99930.42
2018-12-27T01:27:35.754Z,99924.81
2018-12-27T01:30:09.803Z,99935.54
2018-12-27T01:32:45.586Z,99929.09
2018-12-27T01:35:19.952Z,99936.51
2018-12-27T01:37:54.953Z,99939.48
2018-12-27T01:40:27.010Z,99942.94
2018-12-27T01:43:01.000Z,99929.27
2018-12-27T01:45:34.016Z,99933.40
2018-12-27T01:48:07.188Z,99936.84
2018-12-27T01:50:41.339Z,99941.95
2018-12-27T01:53:13.133Z,99936.68
2018-12-27T01:55:47.527Z,99849.78
2018-12-27T01:58:19.055Z,99945.42
2018-12-27T02:00:51.518Z,99944.39
2018-12-27T02:03:26.489Z,99937.33
2018-12-27T02:05:57.147Z,99936.66
2018-12-27T02:08:31.805Z,99936.66
2018-12-27T02:11:04.263Z,99936.32
2018-12-27T02:13:39.148Z,99933.20
2018-12-27T02:16:12.474Z,99931.39
2018-12-27T02:18:48.457Z,99932.34
2018-12-27T02:21:20.166Z,99930.23
2018-12-27T02:23:54.423Z,99932.70
2018-12-27T02:26:25.952Z,99924.09
2018-12-27T02:29:01.876Z,99920.81
2018-12-27T02:31:34.253Z,99930.88
2018-12-27T02:34:06.281Z,99920.32
2018-12-27T02:36:39.196Z,99923.61
2018-12-27T02:39:12.931Z,99923.95
2018-12-27T02:41:44.422Z,99934.31
2018-12-27T02:44:18.654Z,99912.90
2018-12-27T02:46:52.665Z,99923.27
2018-12-27T02:49:26.525Z,99913.70
2018-12-27T02:51:58.189Z,99906.27
2018-12-27T02:54:35.399Z,99908.61
2018-12-27T02:57:10.948Z,99907.87
2018-12-27T02:59:42.473Z,99907.87
2018-12-27T03:02:14.957Z,99787.85
2018-12-27T03:04:48.479Z,99902.99
2018-12-27T03:07:21.444Z,99904.47
2018-12-27T03:09:53.441Z,99899.19
2018-12-27T03:12:26.509Z,99906.27
2018-12-27T03:14:59.392Z,99903.33
2018-12-27T03:17:33.709Z,99910.75
2018-12-27T03:20:07.440Z,99911.25
2018-12-27T03:22:40.774Z,99908.27
2018-12-27T03:25:12.853Z,99911.92
2018-12-27T03:27:47.995Z,99906.30
2018-12-27T03:30:19.497Z,99907.13
2018-12-27T03:32:52.138Z,99902.37
2018-12-27T03:35:27.188Z,99907.31
2018-12-27T03:37:58.625Z,99896.73
2018-12-27T03:40:32.651Z,99897.08
2018-12-27T03:43:04.946Z,99895.42
2018-12-27T03:45:37.509Z,99892.78
2018-12-27T03:48:12.140Z,99890.33
2018-12-27T03:50:44.764Z,99891.31
2018-12-27T03:53:18.925Z,99891.77
2018-12-27T03:55:52.720Z,99893.27
2018-12-27T03:58:25.560Z,99888.82
2018-12-27T04:01:02.438Z,99880.61
2018-12-27T04:03:35.519Z,99887.84
2018-12-27T04:06:12.003Z,99891.12
2018-12-27T04:08:47.682Z,99887.84
2018-12-27T04:11:22.205Z,99883.55
2018-12-27T04:13:53.860Z,99873.00
2018-12-27T04:16:27.831Z,99883.39
2018-12-27T04:19:00.987Z,99881.44
2018-12-27T04:21:34.493Z,99881.92
2018-12-27T04:24:07.912Z,99875.48
2018-12-27T04:26:41.729Z,99873.98
2018-12-27T04:29:13.214Z,99874.66
2018-12-27T04:31:49.299Z,99875.45
2018-12-27T04:34:21.984Z,99880.76
2018-12-27T04:36:55.243Z,99877.48
2018-12-27T04:39:29.820Z,99871.56
2018-12-27T04:42:04.397Z,99874.34
2018-12-27T04:44:37.018Z,99876.49
2018-12-27T04:47:10.729Z,99876.98
2018-12-27T04:49:42.276Z,99882.26
2018-12-27T04:52:16.215Z,99879.28
2018-12-27T04:54:50.040Z,99877.33
2018-12-27T04:57:21.867Z,99873.67
2018-12-27T04:59:54.146Z,99871.22
2018-12-27T05:02:27.866Z,99869.41
2018-12-27T05:05:01.945Z,99863.64
2018-12-27T05:07:35.922Z,99873.70
2018-12-27T05:10:09.006Z,99864.47
2018-12-27T05:12:42.716Z,99869.07
2018-12-27T05:15:15.891Z,99877.81
2018-12-27T05:17:48.701Z,99882.59
2018-12-27T05:20:20.071Z,99885.57
2018-12-27T05:22:54.270Z,99896.12
2018-12-27T05:25:27.357Z,99897.09
2018-12-27T05:28:00.827Z,99888.55
2018-12-27T05:30:34.966Z,99882.78
2018-12-27T05:33:08.684Z,99882.94
2018-12-27T05:35:41.922Z,99889.89
2018-12-27T05:38:13.294Z,99881.98
2018-12-27T05:40:45.993Z,99877.34
2018-12-27T05:43:19.062Z,99867.78
2018-12-27T05:45:50.908Z,99878.97
2018-12-27T05:48:26.688Z,99873.39
2018-12-27T05:50:58.867Z,99869.56
2018-12-27T05:53:32.160Z,99867.11
2018-12-27T05:56:06.120Z,99870.27
2018-12-27T05:58:38.132Z,99869.28
2018-12-27T06:01:11.193Z,99871.43
2018-12-27T06:03:45.106Z,99872.75
2018-12-27T06:06:19.027Z,99878.54
2018-12-27T06:08:52.112Z,99882.95
2018-12-27T06:11:25.077Z,99887.56
2018-12-27T06:13:59.010Z,99886.09
2018-12-27T06:16:33.156Z,99887.59
2018-12-27T06:19:07.091Z,99889.73
2018-12-27T06:21:40.546Z,99896.84
2018-12-27T06:24:12.676Z,99896.84
2018-12-27T06:26:44.284Z,99896.81
2018-12-27T06:29:16.076Z,99896.30
2018-12-27T06:31:47.592Z,99899.09
2018-12-27T06:34:19.093Z,99900.75
2018-12-27T06:36:53.209Z,99902.71
2018-12-27T06:39:26.068Z,99899.41
2018-12-27T06:41:59.401Z,99893.48
2018-12-27T06:44:31.225Z,99888.21
2018-12-27T06:47:05.366Z,99884.74
2018-12-27T06:49:39.999Z,99883.73
2018-12-27T06:52:14.366Z,99886.55
2018-12-27T06:54:48.475Z,99885.23
2018-12-27T06:57:20.997Z,99876.49
2018-12-27T06:59:54.473Z,99876.65
2018-12-27T07:02:28.303Z,99869.72
2018-12-27T07:05:01.384Z,99870.66
2018-12-27T07:07:35.347Z,99869.72
2018-12-27T07:10:08.353Z,99871.86
2018-12-27T07:12:40.464Z,99870.02
2018-12-27T07:15:14.308Z,99877.07
2018-12-27T07:17:45.907Z,99760.98
2018-12-27T07:20:19.476Z,99866.89
2018-12-27T07:22:51.582Z,99860.45
2018-12-27T07:25:25.011Z,99861.92
2018-12-27T07:27:58.450Z,99861.43
2018-12-27T07:30:34.229Z,99860.94
2018-12-27T07:33:10.451Z,99861.73
2018-12-27T07:35:42.632Z,99860.75
2018-12-27T07:38:16.611Z,99857.44
2018-12-27T07:40:48.134Z,99849.17
2018-12-27T07:43:20.610Z,99847.86
2018-12-27T07:45:56.264Z,99851.63
2018-12-27T07:48:30.565Z,99848.83
2018-12-27T07:51:01.884Z,99852.11
2018-12-27T07:53:35.971Z,99846.49
2018-12-27T07:56:09.645Z,99845.81
2018-12-27T07:58:42.707Z,99846.94
2018-12-27T08:01:15.700Z,99846.11
2018-12-27T08:03:47.806Z,99849.42
2018-12-27T08:06:20.655Z,99845.80
2018-12-27T08:08:52.260Z,99841.23
2018-12-27T08:11:25.609Z,99838.66
2018-12-27T08:13:59.696Z,99832.78
2018-12-27T08:16:39.066Z,99833.13
2018-12-27T08:19:10.591Z,99828.00
2018-12-27T08:21:43.822Z,99831.47
2018-12-27T08:24:15.745Z,99822.57
2018-12-27T08:26:49.663Z,99824.38
2018-12-27T08:29:25.131Z,99822.88
2018-12-27T08:32:00.824Z,99822.51
2018-12-27T08:34:42.785Z,99819.05
2018-12-27T08:37:21.724Z,99818.84
2018-12-27T08:39:53.668Z,99818.84
2018-12-27T08:42:28.068Z,99818.16
2018-12-27T08:45:00.891Z,99825.02
2018-12-27T08:47:35.879Z,99809.86
2018-12-27T08:50:08.316Z,99812.17
2018-12-27T08:52:41.882Z,99821.70
2018-12-27T08:55:13.722Z,99825.94
2018-12-27T08:57:46.723Z,99592.95
2018-12-27T09:00:19.709Z,99823.22
2018-12-27T09:02:51.144Z,99817.91
2018-12-27T09:05:25.959Z,99821.39
2018-12-27T09:07:59.686Z,99824.14
2018-12-27T09:10:32.245Z,99824.23
2018-12-27T09:13:05.973Z,99825.99
2018-12-27T09:15:41.291Z,99824.36
2018-12-27T09:18:16.599Z,99828.00
2018-12-27T09:20:51.050Z,99830.83
2018-12-27T09:23:26.437Z,99822.08
2018-12-27T09:25:58.942Z,99823.67
2018-12-27T09:28:33.871Z,99813.86
2018-12-27T09:31:10.180Z,99816.11
2018-12-27T09:33:45.109Z,99807.94
2018-12-27T09:36:19.860Z,99814.48
2018-12-27T09:38:52.133Z,99812.14
2018-12-27T09:41:29.016Z,99805.42
2018-12-27T09:44:01.990Z,99802.25
2018-12-27T09:46:33.511Z,99805.45
2018-12-27T09:49:07.093Z,99799.59
2018-12-27T09:51:40.193Z,99795.45
2018-12-27T09:54:12.837Z,99799.48
2018-12-27T09:56:45.941Z,99794.45
2018-12-27T09:59:19.254Z,99793.22
2018-12-27T10:01:52.052Z,99788.75
2018-12-27T10:04:27.832Z,99792.97
2018-12-27T10:06:59.256Z,99780.23
2018-12-27T10:09:32.447Z,99786.75
2018-12-27T10:12:04.221Z,99779.11
2018-12-27T10:14:38.353Z,99775.70
2018-12-27T10:17:11.958Z,99777.36
2018-12-27T10:19:46.903Z,99607.54
2018-12-27T10:22:19.195Z,99771.98
2018-12-27T10:24:56.563Z,99767.88
2018-12-27T10:27:30.892Z,99755.58
2018-12-27T10:30:03.294Z,99754.70
2018-12-27T10:32:36.481Z,99747.81
2018-12-27T10:35:10.394Z,99747.31
2018-12-27T10:37:43.204Z,99746.88
2018-12-27T10:40:17.792Z,99740.25
2018-12-27T10:42:50.665Z,99738.08
2018-12-27T10:45:25.794Z,99731.27
2018-12-27T10:47:58.591Z,99717.29
2018-12-27T10:50:31.557Z,99718.37
2018-12-27T10:53:05.060Z,99706.54
2018-12-27T10:55:39.373Z,99701.63
2018-12-27T10:58:12.462Z,99698.97
2018-12-27T11:00:45.441Z,99693.91
2018-12-27T11:03:19.594Z,99694.06
2018-12-27T11:05:55.143Z,99689.31
2018-12-27T11:08:31.479Z,99685.99
2018-12-27T11:11:03.549Z,99676.07
2018-12-27T11:13:37.670Z,99673.16
2018-12-27T11:16:10.699Z,99667.94
2018-12-27T11:18:45.747Z,99664.36
2018-12-27T11:21:32.882Z,99660.17
2018-12-27T11:24:04.580Z,99648.22
2018-12-27T11:26:37.454Z,99649.61
2018-12-27T11:29:12.603Z,99646.41
2018-12-27T11:31:45.476Z,99645.41
2018-12-27T11:34:19.455Z,99633.75
2018-12-27T11:36:52.565Z,99623.75
2018-12-27T11:39:26.568Z,99622.33
2018-12-27T11:42:00.514Z,99622.33
2018-12-27T11:44:33.541Z,99622.72
2018-12-27T11:47:04.854Z,99613.77
2018-12-27T11:49:37.585Z,99616.88
2018-12-27T11:52:11.722Z,99614.95
2018-12-27T11:54:45.728Z,99609.32
2018-12-27T11:57:17.117Z,99611.30
2018-12-27T11:59:50.066Z,99614.16
2018-12-27T12:02:31.331Z,99607.64
2018-12-27T12:05:02.655Z,99596.49
2018-12-27T12:07:44.219Z,99602.19
2018-12-27T12:10:19.246Z,99601.80
2018-12-27T12:12:56.852Z,99592.62
2018-12-27T12:15:31.517Z,99583.58
2018-12-27T12:18:06.746Z,99583.31
2018-12-27T12:20:54.756Z,99583.81
2018-12-27T12:23:32.749Z,99580.80
2018-12-27T12:26:16.396Z,99586.51
2018-12-27T12:28:52.476Z,99580.08
2018-12-27T12:31:26.307Z,99577.44
2018-12-27T12:34:01.903Z,99574.97
2018-12-27T12:36:38.285Z,99578.45
2018-12-27T12:39:10.540Z,99571.29
2018-12-27T12:41:45.867Z,99575.28
2018-12-27T12:44:30.786Z,99572.89
2018-12-27T12:47:51.433Z,99573.33
2018-12-27T12:50:22.887Z,99570.04
2018-12-27T12:52:58.747Z,99561.47
2018-12-27T12:55:35.792Z,99556.22
2018-12-27T12:58:09.471Z,99547.28
2018-12-27T13:00:44.674Z,99543.25
2018-12-27T13:03:18.108Z,99539.95
2018-12-27T13:05:59.294Z,99529.33
2018-12-27T13:08:41.748Z,99532.72
2018-12-27T13:14:20.571Z,99514.70
2018-12-27T13:16:59.395Z,99504.31
2018-12-27T13:19:36.892Z,99504.41
2018-12-27T13:22:23.681Z,99496.16
2018-12-27T13:25:20.430Z,99487.97
2018-12-27T13:28:02.780Z,99483.28
2018-12-27T13:30:47.857Z,99487.80
2018-12-27T13:33:29.655Z,99483.80
2018-12-27T13:36:17.573Z,99480.86
2018-12-27T13:38:51.578Z,99474.61
2018-12-27T13:41:28.204Z,99472.25
2018-12-27T13:44:00.084Z,99470.42
2018-12-27T13:46:35.757Z,99468.69
2018-12-27T13:49:16.123Z,99465.94
2018-12-27T13:51:48.108Z,99470.23
2018-12-27T13:54:22.146Z,99468.20
2018-12-27T13:56:55.371Z,99467.48
2018-12-27T13:59:31.343Z,99464.91
2018-12-27T14:02:05.248Z,99466.77
2018-12-27T14:04:39.567Z,99466.56
2018-12-27T14:07:12.463Z,99473.09
2018-12-27T14:09:46.201Z,99265.55
2018-12-27T14:12:17.667Z,99480.92
2018-12-27T14:14:50.348Z,99478.80
2018-12-27T14:17:24.191Z,99475.34
2018-12-27T14:19:56.334Z,99481.95
2018-12-27T14:22:28.206Z,99481.33
2018-12-27T14:25:02.409Z,99480.80
2018-12-27T14:27:37.861Z,99467.84
2018-12-27T14:30:09.747Z,99474.08
2018-12-27T14:32:43.407Z,99484.06
2018-12-27T14:35:16.353Z,99486.18
2018-12-27T14:37:48.614Z,99482.14
2018-12-27T14:40:21.883Z,99488.27
2018-12-27T14:42:55.314Z,99491.50
2018-12-27T14:45:31.075Z,99488.38
2018-12-27T14:48:03.279Z,99486.73
2018-12-27T14:50:34.641Z,99489.34
2018-12-27T14:53:07.458Z,99488.73
2018-12-27T14:55:42.023Z,99487.89
2018-12-27T14:58:13.426Z,99484.88
2018-12-27T15:00:47.247Z,99483.61
2018-12-27T15:03:21.418Z,99487.36
2018-12-27T15:05:55.522Z,99486.73
2018-12-27T15:08:29.296Z,99480.14
2018-12-27T15:11:07.493Z,99480.12
2018-12-27T15:13:40.662Z,99486.56
2018-12-27T15:16:13.264Z,99480.27
2018-12-27T15:18:49.622Z,99483.28
2018-12-27T15:21:24.638Z,99481.48
2018-12-27T15:24:00.856Z,99480.27
2018-12-27T15:26:34.103Z,99485.64
2018-12-27T15:29:07.790Z,99487.22
2018-12-27T15:31:53.792Z,99476.09
2018-12-27T15:34:32.052Z,99476.09
2018-12-27T15:37:07.567Z,99473.45
2018-12-27T15:39:40.688Z,99474.03
2018-12-27T15:42:13.215Z,99477.55
2018-12-27T15:44:47.068Z,99470.44
2018-12-27T15:47:30.973Z,99477.17
2018-12-27T15:50:08.362Z,99480.19
2018-12-27T15:52:45.927Z,99480.56
2018-12-27T15:55:22.870Z,99486.40
2018-12-27T15:58:11.306Z,99485.77
2018-12-27T16:01:00.546Z,99488.34
2018-12-27T16:03:36.734Z,99487.59
2018-12-27T16:06:11.059Z,99486.97
2018-12-27T16:08:43.794Z,99490.55
2018-12-27T16:11:21.422Z,99491.58
2018-12-27T16:14:00.860Z,99487.48
2018-12-27T16:16:32.555Z,99495.00
2018-12-27T16:19:07.850Z,99495.41
2018-12-27T16:21:40.975Z,99499.75
2018-12-27T16:24:13.593Z,99502.95
2018-12-27T16:26:46.979Z,99502.00
2018-12-27T16:29:20.156Z,99500.35
2018-12-27T16:31:56.553Z,99507.65
2018-12-27T16:34:37.721Z,99512.86
2018-12-27T16:37:12.719Z,99505.47
2018-12-27T16:39:57.995Z,99505.41
2018-12-27T16:42:35.669Z,99508.41
2018-12-27T16:45:18.002Z,99507.82
2018-12-27T16:48:00.721Z,99510.33
2018-12-27T16:50:39.826Z,99512.50
2018-12-27T16:53:24.891Z,99510.98
2018-12-27T16:56:09.045Z,99514.16
2018-12-27T16:58:48.455Z,99501.70
2018-12-27T17:01:33.560Z,99501.70
2018-12-27T17:04:24.881Z,99501.68
2018-12-27T17:07:18.512Z,99508.14
2018-12-27T17:10:00.938Z,99508.97
2018-12-27T17:12:57.712Z,99513.59
2018-12-27T17:15:40.743Z,99507.34
2018-12-27T17:18:22.162Z,99516.09
2018-12-27T17:20:56.903Z,99512.33
2018-12-27T17:23:49.065Z,99514.00
2018-12-27T17:26:23.596Z,99513.67
2018-12-27T17:29:02.749Z,99520.61
2018-12-27T17:31:54.033Z,99520.97
2018-12-27T17:34:46.171Z,99517.70
2018-12-27T17:37:40.806Z,99518.41
2018-12-27T17:40:18.132Z,99511.55
2018-12-27T17:42:56.961Z,99496.38
2018-12-27T17:45:36.893Z,99513.84
2018-12-27T17:48:17.331Z,99511.08
2018-12-27T17:51:00.893Z,99512.53
2018-12-27T17:53:41.561Z,99508.93
2018-12-27T17:56:19.742Z,99510.66
2018-12-27T17:59:23.386Z,99507.61
2018-12-27T18:02:05.603Z,99513.94
2018-12-27T18:04:54.804Z,99520.19
2018-12-27T18:07:47.748Z,99517.06
2018-12-27T18:10:54.790Z,99510.66
2018-12-27T18:13:46.768Z,99509.64
2018-12-27T18:16:24.164Z,99511.65
2018-12-27T18:19:10.263Z,99510.66
2018-12-27T18:21:44.260Z,99507.34
2018-12-27T18:24:24.333Z,99504.84
2018-12-27T18:27:25.704Z,99505.33
2018-12-27T18:30:07.787Z,99500.05
2018-12-27T18:32:57.110Z,99504.07
2018-12-27T18:35:35.757Z,99507.56
2018-12-27T18:38:34.568Z,99515.33
2018-12-27T18:41:24.345Z,99504.78
2018-12-27T18:44:12.279Z,99499.16
2018-12-27T18:46:55.991Z,99505.39
2018-12-27T18:49:57.010Z,99505.05
2018-12-27T18:52:34.313Z,99509.64
2018-12-27T18:55:08.586Z,99506.37
2018-12-27T18:58:25.015Z,99504.09
2018-12-27T19:01:08.293Z,99510.05
2018-12-27T19:03:47.128Z,99511.73
2018-12-27T19:06:28.268Z,99513.41
2018-12-27T19:09:08.846Z,99505.52
2018-12-27T19:12:41.002Z,99514.45
2018-12-27T19:15:36.924Z,99512.16
2018-12-27T19:18:31.327Z,99517.43
2018-12-27T19:21:59.948Z,99520.09
2018-12-27T19:24:35.047Z,99523.75
2018-12-27T19:27:16.567Z,99521.45
2018-12-27T19:30:11.627Z,99521.13
2018-12-27T19:32:48.570Z,99517.86
2018-12-27T19:35:49.050Z,99515.91
2018-12-27T19:38:30.374Z,99513.91
2018-12-27T19:41:03.653Z,99522.50
2018-12-27T19:43:39.299Z,99522.66
2018-12-27T19:46:19.979Z,99534.05
2018-12-27T19:49:04.575Z,99530.82
2018-12-27T19:51:40.191Z,99525.56
2018-12-27T19:54:21.063Z,99532.36
2018-12-27T20:00:14.277Z,99520.09
2018-12-27T20:02:55.358Z,99332.98
2018-12-27T20:05:44.681Z,99528.72
2018-12-27T20:08:36.298Z,99523.61
2018-12-27T20:11:17.284Z,99526.77
2018-12-27T20:13:51.129Z,99528.92
2018-12-27T20:16:30.509Z,99526.45
2018-12-27T20:19:02.229Z,99527.80
2018-12-27T20:21:35.029Z,99517.42
2018-12-27T20:24:15.806Z,99517.42
2018-12-27T20:27:19.303Z,99518.59
2018-12-27T20:29:52.757Z,99530.78
2018-12-27T20:32:26.073Z,99523.70
2018-12-27T20:35:00.029Z,99525.18
2018-12-27T20:37:33.946Z,99523.87
2018-12-27T20:40:07.379Z,99530.94
2018-12-27T20:42:41.485Z,99535.23
2018-12-27T20:45:15.633Z,99537.22
2018-12-27T20:48:27.458Z,99536.88
2018-12-27T20:51:12.093Z,99531.96
2018-12-27T20:53:49.620Z,99536.73
2018-12-27T20:56:39.978Z,99534.78
2018-12-27T20:59:22.618Z,99532.15
2018-12-27T21:02:16.794Z,99536.09
2018-12-27T21:05:00.786Z,99540.05
2018-12-27T21:07:34.912Z,99532.97
2018-12-27T21:10:11.327Z,99533.77
2018-12-27T21:12:55.326Z,99527.70
2018-12-27T21:15:38.703Z,99528.20
2018-12-27T21:18:15.116Z,99525.56
2018-12-27T21:20:47.093Z,99500.30
2018-12-27T21:23:19.048Z,99521.77
2018-12-27T21:25:54.345Z,99509.77
2018-12-27T21:28:28.313Z,99519.14
2018-12-27T21:31:03.953Z,99518.16
2018-12-27T21:33:47.996Z,99518.02
2018-12-27T21:36:22.783Z,99519.67
2018-12-27T21:38:55.626Z,99523.02
2018-12-27T21:41:30.165Z,99517.42
2018-12-27T21:44:03.369Z,99514.45
2018-12-27T21:46:38.877Z,99511.19
2018-12-27T21:49:11.300Z,99505.28
2018-12-27T21:51:44.453Z,99503.63
2018-12-27T21:54:28.916Z,99500.17
2018-12-27T21:57:00.970Z,99510.39
2018-12-27T21:59:41.001Z,99510.55
2018-12-27T22:02:18.289Z,99511.04
2018-12-27T22:04:51.811Z,99502.02
2018-12-27T22:07:35.188Z,99505.66
2018-12-27T22:10:11.068Z,99498.44
2018-12-27T22:12:46.700Z,99499.09
2018-12-27T22:15:25.009Z,99503.70
2018-12-27T22:18:08.549Z,99507.99
2018-12-27T22:20:58.715Z,99504.38
2018-12-27T22:23:39.765Z,99506.68
2018-12-27T22:26:21.707Z,99498.63
2018-12-27T22:28:56.294Z,99496.48
2018-12-27T22:31:39.225Z,99499.09
2018-12-27T22:34:36.257Z,99491.19
2018-12-27T22:37:24.628Z,99490.73
2018-12-27T22:40:07.821Z,99495.66
2018-12-27T22:42:44.245Z,99496.98
2018-12-27T22:45:22.674Z,99496.79
2018-12-27T22:48:14.586Z,99495.81
2018-12-27T22:50:49.343Z,99493.19
2018-12-27T22:53:27.073Z,99494.00
2018-12-27T22:56:05.225Z,99491.53
2018-12-27T22:58:40.080Z,99490.89
2018-12-27T23:01:17.894Z,99494.01
2018-12-27T23:03:57.571Z,99492.55
2018-12-27T23:06:32.995Z,99497.13
2018-12-27T23:09:11.870Z,99489.57
2018-12-27T23:11:52.857Z,99483.44
2018-12-27T23:14:33.229Z,99486.91
2018-12-27T23:17:09.470Z,99483.29
2018-12-27T23:19:47.246Z,99481.97
2018-12-27T23:22:23.883Z,99481.78
2018-12-27T23:25:02.106Z,99485.92
2018-12-27T23:27:35.933Z,99486.91
2018-12-27T23:30:23.295Z,99488.41
2018-12-27T23:33:04.567Z,99487.58
2018-12-27T23:35:49.172Z,99482.99
2018-12-27T23:38:25.439Z,99479.05
2018-12-27T23:40:57.987Z,99484.80
2018-12-27T23:43:30.189Z,99482.16
2018-12-27T23:46:03.802Z,99488.59
2018-12-27T23:48:37.850Z,99485.77
2018-12-27T23:51:12.065Z,99492.36
2018-12-27T23:53:46.533Z,99481.34
2018-12-27T23:56:23.883Z,99483.33
2018-12-27T23:58:59.587Z,99480.70
